sensor_id;sensor_type;location;lat;lon;timestamp;pressure;altitude;pressure_sealevel;temperature;humidity
59939;BME280;45801;51.810;19.444;2022-12-18T00:01:04;100516.96;;;-2.64;71.92
59939;BME280;45801;51.810;19.444;2022-12-18T00:03:42;100519.94;;;-2.62;72.09
59939;BME280;45801;51.810;19.444;2022-12-18T00:06:08;100520.50;;;-2.50;71.59
59939;BME280;45801;51.810;19.444;2022-12-18T00:08:35;100527.75;;;-2.58;71.91
59939;BME280;45801;51.810;19.444;2022-12-18T00:11:06;100532.67;;;-2.78;72.50
59939;BME280;45801;51.810;19.444;2022-12-18T00:13:34;100534.73;;;-2.68;72.12
59939;BME280;45801;51.810;19.444;2022-12-18T00:16:06;100530.96;;;-2.53;71.43
59939;BME280;45801;51.810;19.444;2022-12-18T00:18:35;100530.80;;;-2.51;71.60
59939;BME280;45801;51.810;19.444;2022-12-18T00:21:04;100527.00;;;-2.56;71.93
59939;BME280;45801;51.810;19.444;2022-12-18T00:23:33;100528.52;;;-2.56;71.67
59939;BME280;45801;51.810;19.444;2022-12-18T00:26:01;100531.20;;;-2.57;71.88
59939;BME280;45801;51.810;19.444;2022-12-18T00:28:28;100539.01;;;-2.53;71.70
59939;BME280;45801;51.810;19.444;2022-12-18T00:31:09;100542.58;;;-2.47;71.55
59939;BME280;45801;51.810;19.444;2022-12-18T00:33:37;100546.45;;;-2.40;71.37
59939;BME280;45801;51.810;19.444;2022-12-18T00:36:05;100545.81;;;-2.31;71.21
59939;BME280;45801;51.810;19.444;2022-12-18T00:38:33;100551.64;;;-2.29;70.93
59939;BME280;45801;51.810;19.444;2022-12-18T00:40:59;100552.73;;;-2.29;70.94
59939;BME280;45801;51.810;19.444;2022-12-18T00:43:26;100555.74;;;-2.23;70.92
59939;BME280;45801;51.810;19.444;2022-12-18T00:45:53;100556.57;;;-2.18;70.49
59939;BME280;45801;51.810;19.444;2022-12-18T00:48:19;100561.80;;;-2.19;70.35
59939;BME280;45801;51.810;19.444;2022-12-18T00:50:52;100563.30;;;-2.13;70.46
59939;BME280;45801;51.810;19.444;2022-12-18T00:53:18;100568.35;;;-1.99;70.11
59939;BME280;45801;51.810;19.444;2022-12-18T00:55:45;100570.77;;;-1.92;69.82
59939;BME280;45801;51.810;19.444;2022-12-18T00:58:14;100577.56;;;-2.02;69.90
59939;BME280;45801;51.810;19.444;2022-12-18T01:00:42;100582.48;;;-2.16;70.02
59939;BME280;45801;51.810;19.444;2022-12-18T01:03:09;100589.70;;;-2.27;70.46
59939;BME280;45801;51.810;19.444;2022-12-18T01:05:40;100587.76;;;-2.38;70.61
59939;BME280;45801;51.810;19.444;2022-12-18T01:08:07;100585.97;;;-2.40;70.79
59939;BME280;45801;51.810;19.444;2022-12-18T01:10:33;100587.63;;;-2.40;70.82
59939;BME280;45801;51.810;19.444;2022-12-18T01:13:00;100586.47;;;-2.37;70.95
59939;BME280;45801;51.810;19.444;2022-12-18T01:15:27;100584.10;;;-2.31;70.45
59939;BME280;45801;51.810;19.444;2022-12-18T01:17:53;100589.23;;;-2.26;70.42
59939;BME280;45801;51.810;19.444;2022-12-18T01:20:20;100591.07;;;-2.37;70.25
59939;BME280;45801;51.810;19.444;2022-12-18T01:22:46;100598.76;;;-2.39;70.60
59939;BME280;45801;51.810;19.444;2022-12-18T01:25:13;100600.73;;;-2.34;70.39
59939;BME280;45801;51.810;19.444;2022-12-18T01:27:39;100601.35;;;-2.25;70.18
59939;BME280;45801;51.810;19.444;2022-12-18T01:30:06;100605.01;;;-2.19;69.71
59939;BME280;45801;51.810;19.444;2022-12-18T01:32:33;100610.91;;;-2.17;69.30
59939;BME280;45801;51.810;19.444;2022-12-18T01:35:00;100616.95;;;-2.26;69.69
59939;BME280;45801;51.810;19.444;2022-12-18T01:37:27;100618.46;;;-2.21;69.78
59939;BME280;45801;51.810;19.444;2022-12-18T01:39:53;100618.02;;;-2.16;69.42
59939;BME280;45801;51.810;19.444;2022-12-18T01:42:21;100617.52;;;-2.15;69.53
59939;BME280;45801;51.810;19.444;2022-12-18T01:47:45;100625.15;;;-2.09;69.30
59939;BME280;45801;51.810;19.444;2022-12-18T01:50:21;100628.71;;;-2.07;68.99
59939;BME280;45801;51.810;19.444;2022-12-18T01:52:53;100626.68;;;-2.07;68.84
59939;BME280;45801;51.810;19.444;2022-12-18T01:55:23;100631.11;;;-2.08;68.98
59939;BME280;45801;51.810;19.444;2022-12-18T01:57:56;100633.42;;;-2.06;69.16
59939;BME280;45801;51.810;19.444;2022-12-18T02:00:24;100636.21;;;-2.13;68.98
59939;BME280;45801;51.810;19.444;2022-12-18T02:02:52;100641.70;;;-2.16;68.96
59939;BME280;45801;51.810;19.444;2022-12-18T02:05:58;100642.99;;;-2.19;69.01
59939;BME280;45801;51.810;19.444;2022-12-18T02:08:56;100642.64;;;-2.31;69.42
59939;BME280;45801;51.810;19.444;2022-12-18T02:20:32;100664.89;;;-2.59;70.02
59939;BME280;45801;51.810;19.444;2022-12-18T02:22:40;100668.57;;;-2.64;70.41
59939;BME280;45801;51.810;19.444;2022-12-18T02:27:59;100667.63;;;-2.39;69.77
59939;BME280;45801;51.810;19.444;2022-12-18T02:30:29;100671.66;;;-2.35;69.47
59939;BME280;45801;51.810;19.444;2022-12-18T02:32:59;100671.77;;;-2.47;69.51
59939;BME280;45801;51.810;19.444;2022-12-18T02:35:29;100675.36;;;-2.41;69.45
59939;BME280;45801;51.810;19.444;2022-12-18T02:37:57;100681.66;;;-2.43;69.53
59939;BME280;45801;51.810;19.444;2022-12-18T02:40:26;100685.06;;;-2.41;69.28
59939;BME280;45801;51.810;19.444;2022-12-18T02:42:54;100688.11;;;-2.38;69.15
59939;BME280;45801;51.810;19.444;2022-12-18T02:45:20;100694.02;;;-2.58;69.68
59939;BME280;45801;51.810;19.444;2022-12-18T02:47:49;100693.89;;;-2.62;69.81
59939;BME280;45801;51.810;19.444;2022-12-18T02:50:38;100696.84;;;-2.69;70.07
59939;BME280;45801;51.810;19.444;2022-12-18T02:56:07;100695.83;;;-2.53;69.82
59939;BME280;45801;51.810;19.444;2022-12-18T03:04:14;100700.91;;;-2.63;69.73
59939;BME280;45801;51.810;19.444;2022-12-18T03:06:46;100701.73;;;-2.62;69.93
59939;BME280;45801;51.810;19.444;2022-12-18T03:09:19;100701.16;;;-2.59;69.78
59939;BME280;45801;51.810;19.444;2022-12-18T03:11:58;100701.01;;;-2.74;70.11
59939;BME280;45801;51.810;19.444;2022-12-18T03:14:54;100705.04;;;-2.65;70.01
59939;BME280;45801;51.810;19.444;2022-12-18T03:17:23;100706.27;;;-2.56;69.71
59939;BME280;45801;51.810;19.444;2022-12-18T03:19:52;100708.48;;;-2.56;69.51
59939;BME280;45801;51.810;19.444;2022-12-18T03:22:23;100713.25;;;-2.50;69.50
59939;BME280;45801;51.810;19.444;2022-12-18T03:24:51;100714.79;;;-2.49;69.24
59939;BME280;45801;51.810;19.444;2022-12-18T03:27:20;100717.95;;;-2.43;68.95
59939;BME280;45801;51.810;19.444;2022-12-18T03:29:52;100725.09;;;-2.56;69.04
59939;BME280;45801;51.810;19.444;2022-12-18T03:32:30;100730.65;;;-2.60;69.41
59939;BME280;45801;51.810;19.444;2022-12-18T03:35:02;100732.41;;;-2.64;69.55
59939;BME280;45801;51.810;19.444;2022-12-18T03:37:31;100736.64;;;-2.57;69.47
59939;BME280;45801;51.810;19.444;2022-12-18T03:39:58;100741.52;;;-2.52;69.25
59939;BME280;45801;51.810;19.444;2022-12-18T03:45:12;100749.95;;;-2.39;69.17
59939;BME280;45801;51.810;19.444;2022-12-18T03:48:15;100759.48;;;-2.32;68.78
59939;BME280;45801;51.810;19.444;2022-12-18T03:50:48;100761.50;;;-2.31;68.87
59939;BME280;45801;51.810;19.444;2022-12-18T03:56:12;100771.20;;;-2.30;68.90
59939;BME280;45801;51.810;19.444;2022-12-18T03:58:41;100770.64;;;-2.25;68.71
59939;BME280;45801;51.810;19.444;2022-12-18T04:01:12;100770.80;;;-2.20;68.66
59939;BME280;45801;51.810;19.444;2022-12-18T04:03:41;100774.11;;;-2.17;68.49
59939;BME280;45801;51.810;19.444;2022-12-18T04:06:10;100771.28;;;-2.17;68.36
59939;BME280;45801;51.810;19.444;2022-12-18T04:08:37;100775.86;;;-2.20;68.33
59939;BME280;45801;51.810;19.444;2022-12-18T04:11:06;100776.80;;;-2.18;68.53
59939;BME280;45801;51.810;19.444;2022-12-18T04:13:36;100777.57;;;-2.14;68.58
59939;BME280;45801;51.810;19.444;2022-12-18T04:16:03;100780.44;;;-2.10;68.22
59939;BME280;45801;51.810;19.444;2022-12-18T04:18:30;100785.59;;;-2.09;68.31
59939;BME280;45801;51.810;19.444;2022-12-18T04:20:56;100786.64;;;-2.06;68.56
59939;BME280;45801;51.810;19.444;2022-12-18T04:23:23;100784.53;;;-2.02;68.31
59939;BME280;45801;51.810;19.444;2022-12-18T04:25:49;100787.73;;;-2.01;68.16
59939;BME280;45801;51.810;19.444;2022-12-18T04:28:16;100790.90;;;-1.98;68.19
59939;BME280;45801;51.810;19.444;2022-12-18T04:30:43;100787.83;;;-2.06;67.96
59939;BME280;45801;51.810;19.444;2022-12-18T04:33:11;100794.44;;;-2.05;68.08
59939;BME280;45801;51.810;19.444;2022-12-18T04:35:39;100797.27;;;-2.01;68.12
59939;BME280;45801;51.810;19.444;2022-12-18T04:38:07;100800.61;;;-2.03;67.96
59939;BME280;45801;51.810;19.444;2022-12-18T04:40:35;100810.66;;;-2.05;67.91
59939;BME280;45801;51.810;19.444;2022-12-18T04:43:02;100818.19;;;-2.16;67.99
59939;BME280;45801;51.810;19.444;2022-12-18T04:45:32;100817.20;;;-2.17;68.16
59939;BME280;45801;51.810;19.444;2022-12-18T04:48:00;100819.77;;;-2.16;68.16
59939;BME280;45801;51.810;19.444;2022-12-18T04:50:28;100820.80;;;-2.19;68.08
59939;BME280;45801;51.810;19.444;2022-12-18T04:52:57;100825.30;;;-2.27;68.50
59939;BME280;45801;51.810;19.444;2022-12-18T04:55:23;100827.25;;;-2.31;68.61
59939;BME280;45801;51.810;19.444;2022-12-18T04:57:50;100829.56;;;-2.29;68.74
59939;BME280;45801;51.810;19.444;2022-12-18T05:00:16;100836.14;;;-2.25;68.62
59939;BME280;45801;51.810;19.444;2022-12-18T05:02:43;100843.97;;;-2.23;68.84
59939;BME280;45801;51.810;19.444;2022-12-18T05:05:10;100843.13;;;-2.21;68.51
59939;BME280;45801;51.810;19.444;2022-12-18T05:07:36;100839.78;;;-2.25;68.57
59939;BME280;45801;51.810;19.444;2022-12-18T05:10:06;100838.89;;;-2.19;68.61
59939;BME280;45801;51.810;19.444;2022-12-18T05:12:33;100841.70;;;-2.32;68.57
59939;BME280;45801;51.810;19.444;2022-12-18T05:14:59;100849.19;;;-2.55;69.23
59939;BME280;45801;51.810;19.444;2022-12-18T05:17:26;100851.81;;;-2.51;69.37
59939;BME280;45801;51.810;19.444;2022-12-18T05:19:52;100844.98;;;-2.49;69.32
59939;BME280;45801;51.810;19.444;2022-12-18T05:22:18;100844.24;;;-2.48;69.04
59939;BME280;45801;51.810;19.444;2022-12-18T05:24:45;100848.75;;;-2.46;69.03
59939;BME280;45801;51.810;19.444;2022-12-18T05:27:11;100853.83;;;-2.44;69.01
59939;BME280;45801;51.810;19.444;2022-12-18T05:29:38;100854.59;;;-2.41;68.81
59939;BME280;45801;51.810;19.444;2022-12-18T05:32:04;100858.36;;;-2.42;68.96
59939;BME280;45801;51.810;19.444;2022-12-18T05:34:31;100858.14;;;-2.34;68.79
59939;BME280;45801;51.810;19.444;2022-12-18T05:36:57;100859.83;;;-2.31;68.55
59939;BME280;45801;51.810;19.444;2022-12-18T05:39:24;100866.77;;;-2.32;68.53
59939;BME280;45801;51.810;19.444;2022-12-18T05:41:50;100867.48;;;-2.33;68.42
59939;BME280;45801;51.810;19.444;2022-12-18T05:44:17;100866.53;;;-2.34;68.38
59939;BME280;45801;51.810;19.444;2022-12-18T05:46:43;100863.80;;;-2.33;68.53
59939;BME280;45801;51.810;19.444;2022-12-18T05:49:10;100868.55;;;-2.28;68.67
59939;BME280;45801;51.810;19.444;2022-12-18T05:51:38;100869.61;;;-2.27;68.56
59939;BME280;45801;51.810;19.444;2022-12-18T05:54:05;100870.69;;;-2.31;68.16
59939;BME280;45801;51.810;19.444;2022-12-18T05:56:31;100874.29;;;-2.26;68.49
59939;BME280;45801;51.810;19.444;2022-12-18T05:58:58;100873.92;;;-2.33;68.11
59939;BME280;45801;51.810;19.444;2022-12-18T06:01:26;100881.13;;;-2.34;68.34
59939;BME280;45801;51.810;19.444;2022-12-18T06:03:53;100883.80;;;-2.45;68.57
59939;BME280;45801;51.810;19.444;2022-12-18T06:06:22;100892.94;;;-2.61;69.24
59939;BME280;45801;51.810;19.444;2022-12-18T06:08:49;100895.96;;;-2.69;69.24
59939;BME280;45801;51.810;19.444;2022-12-18T06:11:22;100897.96;;;-2.64;69.01
59939;BME280;45801;51.810;19.444;2022-12-18T06:13:51;100900.80;;;-2.57;68.97
59939;BME280;45801;51.810;19.444;2022-12-18T06:16:18;100902.86;;;-2.53;68.63
59939;BME280;45801;51.810;19.444;2022-12-18T06:18:46;100903.80;;;-2.48;68.53
59939;BME280;45801;51.810;19.444;2022-12-18T06:21:13;100908.63;;;-2.44;68.35
59939;BME280;45801;51.810;19.444;2022-12-18T06:23:39;100914.06;;;-2.55;68.50
59939;BME280;45801;51.810;19.444;2022-12-18T06:26:08;100923.84;;;-2.50;69.02
59939;BME280;45801;51.810;19.444;2022-12-18T06:28:35;100927.55;;;-2.40;68.72
59939;BME280;45801;51.810;19.444;2022-12-18T06:31:05;100928.36;;;-2.32;69.32
59939;BME280;45801;51.810;19.444;2022-12-18T06:33:32;100937.72;;;-2.34;68.93
59939;BME280;45801;51.810;19.444;2022-12-18T06:36:07;100944.42;;;-2.30;69.18
59939;BME280;45801;51.810;19.444;2022-12-18T06:38:36;100942.07;;;-2.22;69.33
59939;BME280;45801;51.810;19.444;2022-12-18T06:41:12;100945.72;;;-2.18;68.74
59939;BME280;45801;51.810;19.444;2022-12-18T06:43:39;100955.73;;;-2.12;68.53
59939;BME280;45801;51.810;19.444;2022-12-18T06:46:06;100954.89;;;-2.09;67.83
59939;BME280;45801;51.810;19.444;2022-12-18T06:48:33;100957.86;;;-2.04;68.00
59939;BME280;45801;51.810;19.444;2022-12-18T06:51:00;100961.92;;;-2.00;67.98
59939;BME280;45801;51.810;19.444;2022-12-18T06:53:27;100965.27;;;-2.02;67.13
59939;BME280;45801;51.810;19.444;2022-12-18T06:56:00;100972.81;;;-2.01;67.43
59939;BME280;45801;51.810;19.444;2022-12-18T06:58:27;100982.00;;;-2.06;67.19
59939;BME280;45801;51.810;19.444;2022-12-18T07:00:59;100987.96;;;-2.03;67.28
59939;BME280;45801;51.810;19.444;2022-12-18T07:03:26;100992.92;;;-2.08;67.04
59939;BME280;45801;51.810;19.444;2022-12-18T07:05:53;100996.73;;;-2.10;67.54
59939;BME280;45801;51.810;19.444;2022-12-18T07:08:19;101001.66;;;-2.19;67.51
59939;BME280;45801;51.810;19.444;2022-12-18T07:10:45;101007.46;;;-2.25;67.66
59939;BME280;45801;51.810;19.444;2022-12-18T07:13:12;101007.21;;;-2.26;67.86
59939;BME280;45801;51.810;19.444;2022-12-18T07:15:38;101004.73;;;-2.28;67.57
59939;BME280;45801;51.810;19.444;2022-12-18T07:18:05;101010.89;;;-2.39;67.75
59939;BME280;45801;51.810;19.444;2022-12-18T07:20:31;101011.94;;;-2.43;68.32
59939;BME280;45801;51.810;19.444;2022-12-18T07:23:02;101018.48;;;-2.42;68.56
59939;BME280;45801;51.810;19.444;2022-12-18T07:25:28;101019.53;;;-2.39;69.04
59939;BME280;45801;51.810;19.444;2022-12-18T07:27:56;101023.41;;;-2.29;69.39
59939;BME280;45801;51.810;19.444;2022-12-18T07:30:22;101024.75;;;-2.25;68.61
59939;BME280;45801;51.810;19.444;2022-12-18T07:32:48;101027.64;;;-2.31;68.14
59939;BME280;45801;51.810;19.444;2022-12-18T07:35:16;101026.27;;;-2.31;68.00
59939;BME280;45801;51.810;19.444;2022-12-18T07:37:43;101033.84;;;-2.37;67.95
59939;BME280;45801;51.810;19.444;2022-12-18T07:40:10;101032.21;;;-2.38;68.42
59939;BME280;45801;51.810;19.444;2022-12-18T07:42:37;101032.31;;;-2.31;68.42
59939;BME280;45801;51.810;19.444;2022-12-18T07:45:04;101032.27;;;-2.23;68.31
59939;BME280;45801;51.810;19.444;2022-12-18T07:47:30;101036.39;;;-2.20;67.96
59939;BME280;45801;51.810;19.444;2022-12-18T07:49:57;101036.97;;;-2.34;67.48
59939;BME280;45801;51.810;19.444;2022-12-18T07:52:23;101042.02;;;-2.42;67.55
59939;BME280;45801;51.810;19.444;2022-12-18T07:54:49;101045.31;;;-2.43;67.76
59939;BME280;45801;51.810;19.444;2022-12-18T07:57:16;101047.52;;;-2.43;67.82
59939;BME280;45801;51.810;19.444;2022-12-18T07:59:43;101045.30;;;-2.40;67.97
59939;BME280;45801;51.810;19.444;2022-12-18T08:02:09;101049.83;;;-2.37;67.74
59939;BME280;45801;51.810;19.444;2022-12-18T08:04:36;101048.84;;;-2.36;67.80
59939;BME280;45801;51.810;19.444;2022-12-18T08:07:03;101048.73;;;-2.36;67.54
59939;BME280;45801;51.810;19.444;2022-12-18T08:09:29;101051.55;;;-2.28;67.96
59939;BME280;45801;51.810;19.444;2022-12-18T08:11:58;101053.60;;;-2.21;67.36
59939;BME280;45801;51.810;19.444;2022-12-18T08:14:25;101057.11;;;-2.16;68.40
59939;BME280;45801;51.810;19.444;2022-12-18T08:16:51;101059.33;;;-2.11;68.69
59939;BME280;45801;51.810;19.444;2022-12-18T08:19:18;101060.07;;;-2.07;68.10
59939;BME280;45801;51.810;19.444;2022-12-18T08:21:44;101064.42;;;-2.04;67.79
59939;BME280;45801;51.810;19.444;2022-12-18T08:24:11;101070.10;;;-1.99;67.75
59939;BME280;45801;51.810;19.444;2022-12-18T08:26:37;101073.52;;;-1.96;67.47
59939;BME280;45801;51.810;19.444;2022-12-18T08:29:04;101073.60;;;-1.97;67.10
59939;BME280;45801;51.810;19.444;2022-12-18T08:31:42;101079.34;;;-1.99;66.62
59939;BME280;45801;51.810;19.444;2022-12-18T08:34:08;101080.13;;;-2.04;66.73
59939;BME280;45801;51.810;19.444;2022-12-18T08:36:35;101074.95;;;-2.03;66.87
59939;BME280;45801;51.810;19.444;2022-12-18T08:39:01;101076.37;;;-1.97;66.81
59939;BME280;45801;51.810;19.444;2022-12-18T08:41:28;101080.00;;;-1.92;66.87
59939;BME280;45801;51.810;19.444;2022-12-18T08:43:54;101082.02;;;-1.92;66.10
59939;BME280;45801;51.810;19.444;2022-12-18T08:46:42;101083.20;;;-1.98;66.07
59939;BME280;45801;51.810;19.444;2022-12-18T08:49:11;101087.23;;;-2.05;66.09
59939;BME280;45801;51.810;19.444;2022-12-18T08:51:38;101088.64;;;-2.11;65.92
59939;BME280;45801;51.810;19.444;2022-12-18T08:54:05;101093.54;;;-2.10;66.07
59939;BME280;45801;51.810;19.444;2022-12-18T08:56:32;101098.58;;;-2.10;66.40
59939;BME280;45801;51.810;19.444;2022-12-18T08:59:00;101098.42;;;-2.21;66.00
59939;BME280;45801;51.810;19.444;2022-12-18T09:01:27;101100.89;;;-2.25;66.42
59939;BME280;45801;51.810;19.444;2022-12-18T09:03:53;101107.04;;;-2.34;66.24
59939;BME280;45801;51.810;19.444;2022-12-18T09:06:21;101112.92;;;-2.40;66.31
59939;BME280;45801;51.810;19.444;2022-12-18T09:08:49;101119.33;;;-2.55;66.37
59939;BME280;45801;51.810;19.444;2022-12-18T09:11:24;101125.50;;;-2.62;67.12
59939;BME280;45801;51.810;19.444;2022-12-18T09:13:51;101122.65;;;-2.50;67.85
59939;BME280;45801;51.810;19.444;2022-12-18T09:16:18;101124.49;;;-2.52;67.15
59939;BME280;45801;51.810;19.444;2022-12-18T09:18:46;101122.40;;;-2.43;67.70
59939;BME280;45801;51.810;19.444;2022-12-18T09:21:16;101121.22;;;-2.35;67.56
59939;BME280;45801;51.810;19.444;2022-12-18T09:23:43;101115.80;;;-2.28;66.97
59939;BME280;45801;51.810;19.444;2022-12-18T09:26:10;101122.52;;;-2.20;66.49
59939;BME280;45801;51.810;19.444;2022-12-18T09:28:36;101130.31;;;-2.22;65.68
59939;BME280;45801;51.810;19.444;2022-12-18T09:31:05;101130.02;;;-2.23;66.44
59939;BME280;45801;51.810;19.444;2022-12-18T09:33:35;101132.92;;;-2.45;65.85
59939;BME280;45801;51.810;19.444;2022-12-18T09:36:04;101130.88;;;-2.47;66.45
59939;BME280;45801;51.810;19.444;2022-12-18T09:38:32;101131.82;;;-2.50;66.71
59939;BME280;45801;51.810;19.444;2022-12-18T09:41:50;101135.58;;;-2.47;66.70
59939;BME280;45801;51.810;19.444;2022-12-18T09:43:51;101130.48;;;-2.42;66.87
59939;BME280;45801;51.810;19.444;2022-12-18T09:46:25;101128.13;;;-2.32;67.04
59939;BME280;45801;51.810;19.444;2022-12-18T09:48:57;101126.92;;;-2.30;66.31
59939;BME280;45801;51.810;19.444;2022-12-18T09:51:33;101127.27;;;-2.32;66.17
59939;BME280;45801;51.810;19.444;2022-12-18T09:54:11;101128.73;;;-2.50;66.56
59939;BME280;45801;51.810;19.444;2022-12-18T09:56:42;101132.59;;;-2.56;66.94
59939;BME280;45801;51.810;19.444;2022-12-18T09:59:39;101126.04;;;-2.51;66.87
59939;BME280;45801;51.810;19.444;2022-12-18T10:02:19;101127.94;;;-2.46;66.91
59939;BME280;45801;51.810;19.444;2022-12-18T10:04:56;101127.06;;;-2.43;66.79
59939;BME280;45801;51.810;19.444;2022-12-18T10:07:41;101133.05;;;-2.52;66.77
59939;BME280;45801;51.810;19.444;2022-12-18T10:13:21;101123.22;;;-2.48;67.52
59939;BME280;45801;51.810;19.444;2022-12-18T10:15:58;101123.41;;;-2.46;67.32
59939;BME280;45801;51.810;19.444;2022-12-18T10:18:49;101123.40;;;-2.47;66.83
59939;BME280;45801;51.810;19.444;2022-12-18T10:24:54;101132.86;;;-2.66;66.59
59939;BME280;45801;51.810;19.444;2022-12-18T10:27:26;101136.63;;;-2.82;66.88
59939;BME280;45801;51.810;19.444;2022-12-18T10:29:54;101135.80;;;-2.89;66.97
59939;BME280;45801;51.810;19.444;2022-12-18T10:32:27;101134.17;;;-2.91;67.37
59939;BME280;45801;51.810;19.444;2022-12-18T10:34:56;101132.52;;;-2.93;67.42
59939;BME280;45801;51.810;19.444;2022-12-18T10:37:26;101134.14;;;-2.90;67.46
59939;BME280;45801;51.810;19.444;2022-12-18T10:40:09;101141.07;;;-2.94;67.66
59939;BME280;45801;51.810;19.444;2022-12-18T10:42:36;101140.93;;;-2.86;67.39
59939;BME280;45801;51.810;19.444;2022-12-18T10:45:12;101143.20;;;-2.82;67.04
59939;BME280;45801;51.810;19.444;2022-12-18T10:47:48;101147.67;;;-2.84;67.14
59939;BME280;45801;51.810;19.444;2022-12-18T10:50:28;101144.50;;;-2.87;66.80
59939;BME280;45801;51.810;19.444;2022-12-18T10:52:59;101146.71;;;-3.04;67.21
59939;BME280;45801;51.810;19.444;2022-12-18T10:55:46;101148.63;;;-3.13;67.45
59939;BME280;45801;51.810;19.444;2022-12-18T10:58:38;101146.74;;;-3.05;67.68
59939;BME280;45801;51.810;19.444;2022-12-18T11:01:14;101142.60;;;-2.99;67.78
59939;BME280;45801;51.810;19.444;2022-12-18T11:06:23;101142.16;;;-2.83;67.30
59939;BME280;45801;51.810;19.444;2022-12-18T11:09:03;101145.89;;;-2.82;67.10
59939;BME280;45801;51.810;19.444;2022-12-18T11:11:31;101147.66;;;-2.79;67.01
59939;BME280;45801;51.810;19.444;2022-12-18T11:14:04;101148.52;;;-2.78;67.00
59939;BME280;45801;51.810;19.444;2022-12-18T11:16:51;101147.96;;;-2.83;66.54
59939;BME280;45801;51.810;19.444;2022-12-18T11:19:25;101141.08;;;-2.87;66.94
59939;BME280;45801;51.810;19.444;2022-12-18T11:21:55;101141.67;;;-2.79;67.05
59939;BME280;45801;51.810;19.444;2022-12-18T11:24:35;101145.80;;;-2.72;66.92
59939;BME280;45801;51.810;19.444;2022-12-18T11:27:05;101148.27;;;-2.66;66.58
59939;BME280;45801;51.810;19.444;2022-12-18T11:29:37;101142.66;;;-2.70;65.92
59939;BME280;45801;51.810;19.444;2022-12-18T11:34:51;101138.94;;;-2.65;66.47
59939;BME280;45801;51.810;19.444;2022-12-18T11:37:19;101141.34;;;-2.62;66.34
59939;BME280;45801;51.810;19.444;2022-12-18T11:39:50;101143.39;;;-2.57;66.13
59939;BME280;45801;51.810;19.444;2022-12-18T11:43:20;101145.52;;;-2.51;65.89
59939;BME280;45801;51.810;19.444;2022-12-18T11:45:34;101144.34;;;-2.51;65.72
59939;BME280;45801;51.810;19.444;2022-12-18T11:48:18;101144.42;;;-2.49;65.96
59939;BME280;45801;51.810;19.444;2022-12-18T11:50:55;101133.38;;;-2.45;66.03
59939;BME280;45801;51.810;19.444;2022-12-18T11:53:24;101125.61;;;-2.40;65.63
59939;BME280;45801;51.810;19.444;2022-12-18T11:56:30;101124.29;;;-2.33;65.76
59939;BME280;45801;51.810;19.444;2022-12-18T11:59:09;101121.91;;;-2.27;65.20
59939;BME280;45801;51.810;19.444;2022-12-18T12:04:43;101135.33;;;-2.39;65.02
59939;BME280;45801;51.810;19.444;2022-12-18T12:10:04;101147.49;;;-2.38;66.16
59939;BME280;45801;51.810;19.444;2022-12-18T12:12:51;101148.71;;;-2.29;66.35
59939;BME280;45801;51.810;19.444;2022-12-18T12:21:45;101159.30;;;-2.23;65.28
59939;BME280;45801;51.810;19.444;2022-12-18T12:24:33;101163.48;;;-2.28;65.14
59939;BME280;45801;51.810;19.444;2022-12-18T12:27:10;101161.92;;;-2.31;65.46
59939;BME280;45801;51.810;19.444;2022-12-18T12:30:15;101166.30;;;-2.36;64.90
59939;BME280;45801;51.810;19.444;2022-12-18T12:40:50;101174.80;;;-2.49;65.45
59939;BME280;45801;51.810;19.444;2022-12-18T12:43:28;101181.06;;;-2.47;65.41
59939;BME280;45801;51.810;19.444;2022-12-18T12:46:00;101183.70;;;-2.49;65.20
59939;BME280;45801;51.810;19.444;2022-12-18T12:49:02;101185.94;;;-2.56;64.95
59939;BME280;45801;51.810;19.444;2022-12-18T12:51:35;101193.77;;;-2.61;65.53
59939;BME280;45801;51.810;19.444;2022-12-18T12:54:06;101196.05;;;-2.61;65.58
59939;BME280;45801;51.810;19.444;2022-12-18T12:59:37;101201.14;;;-2.58;65.75
59939;BME280;45801;51.810;19.444;2022-12-18T13:02:34;101201.73;;;-2.52;65.58
59939;BME280;45801;51.810;19.444;2022-12-18T13:05:29;101201.55;;;-2.46;65.45
59939;BME280;45801;51.810;19.444;2022-12-18T13:08:11;101200.67;;;-2.45;65.43
59939;BME280;45801;51.810;19.444;2022-12-18T13:10:42;101199.59;;;-2.42;65.28
59939;BME280;45801;51.810;19.444;2022-12-18T13:13:15;101200.36;;;-2.42;65.13
59939;BME280;45801;51.810;19.444;2022-12-18T13:15:45;101197.42;;;-2.46;65.26
59939;BME280;45801;51.810;19.444;2022-12-18T13:18:22;101193.21;;;-2.44;65.46
59939;BME280;45801;51.810;19.444;2022-12-18T13:34:24;101206.34;;;-2.49;64.89
59939;BME280;45801;51.810;19.444;2022-12-18T13:36:52;101209.92;;;-2.63;65.04
59939;BME280;45801;51.810;19.444;2022-12-18T13:42:31;101215.48;;;-2.82;65.56
59939;BME280;45801;51.810;19.444;2022-12-18T13:45:01;101225.30;;;-2.81;65.78
59939;BME280;45801;51.810;19.444;2022-12-18T13:47:36;101226.20;;;-2.79;65.29
59939;BME280;45801;51.810;19.444;2022-12-18T13:50:20;101224.36;;;-2.80;65.32
59939;BME280;45801;51.810;19.444;2022-12-18T13:52:48;101224.63;;;-2.82;65.54
59939;BME280;45801;51.810;19.444;2022-12-18T13:55:18;101229.98;;;-2.85;65.66
59939;BME280;45801;51.810;19.444;2022-12-18T13:57:46;101229.38;;;-3.00;65.52
59939;BME280;45801;51.810;19.444;2022-12-18T14:02:49;101229.52;;;-3.07;66.26
59939;BME280;45801;51.810;19.444;2022-12-18T14:05:34;101233.59;;;-3.06;66.20
59939;BME280;45801;51.810;19.444;2022-12-18T14:08:08;101237.52;;;-3.05;66.14
59939;BME280;45801;51.810;19.444;2022-12-18T14:10:49;101234.64;;;-3.02;66.37
59939;BME280;45801;51.810;19.444;2022-12-18T14:15:48;101232.61;;;-2.83;66.50
59939;BME280;45801;51.810;19.444;2022-12-18T14:18:38;101235.17;;;-2.75;66.36
59939;BME280;45801;51.810;19.444;2022-12-18T14:21:05;101240.45;;;-2.67;66.32
59939;BME280;45801;51.810;19.444;2022-12-18T14:23:38;101239.46;;;-2.61;66.08
59939;BME280;45801;51.810;19.444;2022-12-18T14:26:24;101235.69;;;-2.55;66.20